Time;durP1;ratioP1;P1;durP2;ratioP2;P2;SDS_P1;SDS_P2;PMS_P1;PMS_P2;Temp;Humidity;BMP_temperature;BMP_pressure;BME280_temperature;BME280_humidity;BME280_pressure;Samples;Min_cycle;Max_cycle;Signal;HPM_P1;HPM_P2
2023/04/04 00:00:32;;;;;;;9.33;3.27;;;;;;;-1.10;100.00;97533.56;10453143;28;20192;-74
2023/04/04 00:05:34;;;;;;;6.90;3.30;;;;;;;-1.03;100.00;97526.41;10453421;28;20191;-74
2023/04/04 00:10:34;;;;;;;7.27;2.90;;;;;;;-1.11;100.00;97521.59;10452998;28;20362;-74
2023/04/04 00:15:35;;;;;;;9.33;3.10;;;;;;;-1.12;100.00;97527.66;10452986;28;20680;-74
2023/04/04 00:20:36;;;;;;;6.80;2.90;;;;;;;-1.16;100.00;97525.28;10452083;28;20207;-74
2023/04/04 00:25:36;;;;;;;8.63;2.77;;;;;;;-1.12;100.00;97525.06;10452756;28;20230;-74
2023/04/04 00:30:37;;;;;;;5.37;3.03;;;;;;;-1.11;100.00;97511.31;10452635;28;20195;-74
2023/04/04 00:35:37;;;;;;;5.17;2.43;;;;;;;-1.11;100.00;97513.03;10451616;28;20710;-74
2023/04/04 00:40:46;;;;;;;5.43;2.80;;;;;;;-1.12;100.00;97506.22;10451765;28;20328;-74
2023/04/04 00:45:47;;;;;;;4.03;2.90;;;;;;;-1.08;100.00;97503.47;10450752;28;20191;-74
2023/04/04 00:50:47;;;;;;;4.87;2.60;;;;;;;-0.97;100.00;97497.03;10451746;28;20195;-74
2023/04/04 00:55:47;;;;;;;4.17;2.50;;;;;;;-0.98;100.00;97496.22;10433502;28;20675;-74
2023/04/04 01:00:48;;;;;;;3.80;2.80;;;;;;;-1.11;100.00;97492.47;10432258;28;20681;-74
2023/04/04 01:05:48;;;;;;;5.80;2.77;;;;;;;-1.10;100.00;97494.97;10416962;28;20184;-74
2023/04/04 01:10:48;;;;;;;7.50;3.07;;;;;;;-1.05;100.00;97486.25;10449902;28;20205;-73
2023/04/04 01:15:49;;;;;;;4.50;2.97;;;;;;;-1.06;100.00;97493.09;10449635;28;20235;-73
2023/04/04 01:20:59;;;;;;;6.70;3.30;;;;;;;-1.07;100.00;97494.03;10433071;28;20196;-74
2023/04/04 01:26:02;;;;;;;5.20;3.00;;;;;;;-1.17;100.00;97493.56;10433053;28;20797;-74
2023/04/04 01:31:06;;;;;;;9.23;3.00;;;;;;;-1.20;100.00;97501.41;10448920;28;20183;-74
2023/04/04 01:36:16;;;;;;;5.73;3.00;;;;;;;-1.15;100.00;97490.94;10432892;28;20218;-73
2023/04/04 01:41:18;;;;;;;5.47;3.10;;;;;;;-1.29;100.00;97481.22;10449953;28;20386;-74
2023/04/04 01:46:26;;;;;;;3.90;2.60;;;;;;;-1.23;100.00;97480.13;10417629;28;20192;-73
2023/04/04 01:51:26;;;;;;;3.73;2.60;;;;;;;-1.13;100.00;97473.72;10440491;28;20249;-74
2023/04/04 01:56:28;;;;;;;8.13;3.17;;;;;;;-1.23;100.00;97462.97;10440574;28;20222;-74
2023/04/04 02:01:28;;;;;;;7.30;3.03;;;;;;;-1.21;100.00;97460.34;10457829;28;20271;-74
2023/04/04 02:06:29;;;;;;;8.50;3.00;;;;;;;-1.17;100.00;97451.59;10458644;28;20195;-74
2023/04/04 02:11:29;;;;;;;5.57;2.27;;;;;;;-1.23;100.00;97452.69;10439741;28;20303;-73
2023/04/04 02:16:29;;;;;;;5.97;2.80;;;;;;;-1.44;100.00;97460.41;10439656;28;20220;-74
2023/04/04 02:21:30;;;;;;;5.00;2.73;;;;;;;-1.34;100.00;97457.47;10439599;28;20257;-74
2023/04/04 02:26:30;;;;;;;4.60;2.47;;;;;;;-1.44;100.00;97457.84;10457512;28;20953;-74
2023/04/04 02:31:32;;;;;;;4.63;2.60;;;;;;;-1.44;100.00;97457.00;10438880;28;20218;-74
2023/04/04 02:36:33;;;;;;;6.13;3.17;;;;;;;-1.44;100.00;97452.72;10456409;28;20664;-74
2023/04/04 02:41:33;;;;;;;4.63;2.57;;;;;;;-1.37;100.00;97444.75;10438594;28;20219;-74
2023/04/04 02:46:34;;;;;;;9.87;3.00;;;;;;;-1.39;100.00;97439.66;10453756;28;20271;-74
2023/04/04 02:51:38;;;;;;;8.17;2.80;;;;;;;-1.39;100.00;97443.94;10414087;28;20260;-74
2023/04/04 02:56:39;;;;;;;5.70;3.10;;;;;;;-1.38;100.00;97446.44;10396826;28;20301;-74
2023/04/04 03:01:41;;;;;;;4.20;2.50;;;;;;;-1.31;100.00;97452.19;10411666;28;20279;-74
2023/04/04 03:06:42;;;;;;;6.27;3.10;;;;;;;-1.40;100.00;97453.41;10452144;28;20192;-74
2023/04/04 03:11:42;;;;;;;6.83;2.93;;;;;;;-1.42;100.00;97455.22;10433019;28;20207;-74
2023/04/04 03:16:44;;;;;;;5.77;2.97;;;;;;;-1.47;100.00;97447.69;10434068;28;20215;-75
2023/04/04 03:21:45;;;;;;;5.10;2.77;;;;;;;-1.51;100.00;97445.31;10433539;28;20192;-74
2023/04/04 03:26:45;;;;;;;7.47;3.07;;;;;;;-1.58;100.00;97437.00;10451278;28;20184;-74
2023/04/04 03:31:46;;;;;;;7.67;2.97;;;;;;;-1.59;100.00;97440.50;10431903;28;20193;-74
2023/04/04 03:36:47;;;;;;;5.83;2.60;;;;;;;-1.54;100.00;97440.31;10431995;28;20239;-74
2023/04/04 03:41:47;;;;;;;6.13;2.80;;;;;;;-1.60;100.00;97433.69;10432755;28;20227;-74
2023/04/04 03:46:48;;;;;;;7.53;2.57;;;;;;;-1.71;100.00;97436.69;10450151;28;20195;-73
2023/04/04 03:51:49;;;;;;;5.23;2.97;;;;;;;-1.74;100.00;97429.09;10433121;28;20294;-74
2023/04/04 03:56:50;;;;;;;5.53;3.17;;;;;;;-1.73;100.00;97424.78;10415101;28;20220;-75
2023/04/04 04:01:51;;;;;;;8.40;3.20;;;;;;;-1.78;100.00;97434.44;10416232;28;20195;-75
2023/04/04 04:06:51;;;;;;;6.47;2.70;;;;;;;-1.74;100.00;97429.09;10453321;28;20605;-74
2023/04/04 04:11:52;;;;;;;9.23;3.07;;;;;;;-1.74;100.00;97439.38;10434827;28;20279;-74
2023/04/04 04:16:52;;;;;;;11.20;3.20;;;;;;;-1.88;100.00;97432.25;10434799;28;20216;-74
2023/04/04 04:21:55;;;;;;;7.50;2.87;;;;;;;-1.83;100.00;97445.72;10434493;28;20373;-74
2023/04/04 04:26:56;;;;;;;7.60;2.73;;;;;;;-1.87;100.00;97439.06;10452357;28;20229;-75
2023/04/04 04:31:56;;;;;;;7.90;3.27;;;;;;;-1.86;100.00;97450.16;10434550;28;20192;-74
2023/04/04 04:37:00;;;;;;;9.90;3.10;;;;;;;-2.00;100.00;97448.13;10417889;28;20243;-74
2023/04/04 04:42:07;;;;;;;7.73;3.20;;;;;;;-1.95;100.00;97448.78;10434834;28;20287;-74
2023/04/04 04:47:11;;;;;;;7.60;3.50;;;;;;;-1.84;100.00;97450.91;10434019;28;20196;-74
2023/04/04 04:52:12;;;;;;;5.63;3.00;;;;;;;-1.85;100.00;97439.00;10451291;28;20183;-74
2023/04/04 04:57:17;;;;;;;6.40;2.90;;;;;;;-2.01;100.00;97436.19;10417649;28;20561;-74
2023/04/04 05:02:18;;;;;;;7.10;3.20;;;;;;;-2.00;100.00;97440.44;10451188;28;20188;-74
2023/04/04 05:07:21;;;;;;;8.57;3.20;;;;;;;-1.92;100.00;97450.41;10433191;28;20184;-75
2023/04/04 05:12:22;;;;;;;7.40;3.23;;;;;;;-1.98;100.00;97448.91;10433193;28;20246;-74
2023/04/04 05:17:25;;;;;;;5.77;2.97;;;;;;;-1.91;100.00;97452.06;10416579;28;20215;-74
2023/04/04 05:22:29;;;;;;;8.47;2.90;;;;;;;-1.87;100.00;97464.72;10416411;28;20180;-74
2023/04/04 05:27:30;;;;;;;5.93;3.13;;;;;;;-1.84;100.00;97456.91;10408651;28;20242;-74
2023/04/04 05:32:34;;;;;;;7.97;3.53;;;;;;;-1.75;100.00;97460.81;10438089;28;20195;-74
2023/04/04 05:37:42;;;;;;;9.80;4.37;;;;;;;-1.72;100.00;97468.41;10431881;28;20231;-74
2023/04/04 05:42:55;;;;;;;9.87;4.17;;;;;;;-1.76;100.00;97471.16;10432855;28;20270;-74
2023/04/04 05:47:57;;;;;;;6.03;4.00;;;;;;;-1.83;100.00;97468.00;10448758;28;20214;-74
2023/04/04 05:52:58;;;;;;;10.30;3.63;;;;;;;-1.69;100.00;97477.72;10432302;28;20226;-74
2023/04/04 05:58:00;;;;;;;7.70;3.30;;;;;;;-1.58;100.00;97469.59;10427721;28;20216;-74
2023/04/04 06:03:15;;;;;;;9.90;4.27;;;;;;;-1.52;100.00;97470.16;10417086;28;20773;-74
2023/04/04 06:08:17;;;;;;;10.77;5.00;;;;;;;-1.24;100.00;97460.47;10431517;28;20192;-74
2023/04/04 06:13:18;;;;;;;9.23;3.90;;;;;;;-1.25;100.00;97454.50;10449804;28;20566;-75
2023/04/04 06:18:24;;;;;;;12.80;4.07;;;;;;;-1.35;100.00;97461.75;10431731;28;20239;-74
2023/04/04 06:23:25;;;;;;;13.40;4.27;;;;;;;-1.01;100.00;97462.06;10430941;28;20194;-74
2023/04/04 06:28:25;;;;;;;7.87;4.53;;;;;;;-0.68;100.00;97443.47;10430246;28;20214;-74
2023/04/04 06:33:26;;;;;;;9.63;4.87;;;;;;;-0.87;100.00;97444.31;10447781;28;20291;-74
2023/04/04 06:38:29;;;;;;;17.07;5.67;;;;;;;-0.98;100.00;97449.06;10436607;28;20227;-74
2023/04/04 06:43:31;;;;;;;8.00;4.20;;;;;;;-0.60;100.00;97446.53;10436765;28;20223;-74
2023/04/04 06:48:32;;;;;;;6.97;4.60;;;;;;;-0.71;100.00;97426.44;10453940;28;20187;-74
2023/04/04 06:53:33;;;;;;;4.83;4.03;;;;;;;-0.63;100.00;97421.81;10437378;28;20608;-74
2023/04/04 06:58:33;;;;;;;7.60;4.70;;;;;;;-0.29;100.00;97416.81;10436070;28;20224;-74
2023/04/04 07:03:34;;;;;;;8.83;4.00;;;;;;;0.29;100.00;97398.59;10427513;28;20215;-74
2023/04/04 07:08:35;;;;;;;8.10;4.20;;;;;;;0.83;100.00;97398.44;10452252;28;20655;-73
2023/04/04 07:13:35;;;;;;;7.53;4.20;;;;;;;1.47;94.38;97371.88;10451937;28;20289;-74
2023/04/04 07:18:35;;;;;;;6.53;3.77;;;;;;;2.90;84.84;97299.00;10451890;28;20281;-76
2023/04/04 07:23:36;;;;;;;5.73;3.50;;;;;;;2.87;79.95;97270.72;10433845;28;20196;-76
2023/04/04 07:28:36;;;;;;;7.63;3.73;;;;;;;2.35;80.03;97279.91;10451473;28;20199;-76
2023/04/04 07:33:37;;;;;;;4.93;3.20;;;;;;;2.49;79.74;97297.16;10451423;28;20893;-76
2023/04/04 07:38:37;;;;;;;8.17;3.70;;;;;;;2.57;76.85;97263.91;10450467;28;20238;-77
2023/04/04 07:43:37;;;;;;;4.47;3.27;;;;;;;2.57;75.06;97260.50;10452121;28;20250;-76
2023/04/04 07:48:38;;;;;;;8.77;3.20;;;;;;;2.19;77.37;97289.47;10451938;28;20184;-77
2023/04/04 07:53:38;;;;;;;8.73;3.00;;;;;;;1.87;78.51;97312.84;10450071;28;20196;-75
2023/04/04 07:58:38;;;;;;;6.67;2.90;;;;;;;1.86;77.35;97295.69;10447904;28;20266;-75
2023/04/04 08:03:39;;;;;;;9.10;3.03;;;;;;;1.58;77.77;97292.09;10451467;28;20269;-76
2023/04/04 08:08:40;;;;;;;7.63;3.10;;;;;;;1.83;78.47;97312.19;10451725;28;20180;-77
2023/04/04 08:13:40;;;;;;;4.90;2.63;;;;;;;1.33;74.46;97235.81;10451001;28;20568;-76
2023/04/04 08:18:40;;;;;;;8.77;2.73;;;;;;;1.22;74.77;97249.34;10450164;28;20227;-77
2023/04/04 08:23:41;;;;;;;5.97;2.70;;;;;;;1.25;74.27;97249.97;10449866;28;20198;-76
2023/04/04 08:28:42;;;;;;;5.63;2.47;;;;;;;1.45;74.15;97248.03;10432615;28;20192;-77
2023/04/04 08:33:42;;;;;;;6.63;2.90;;;;;;;1.24;73.29;97232.84;10450493;28;20283;-77
2023/04/04 08:38:43;;;;;;;8.87;4.53;;;;;;;1.33;75.26;97274.53;10450572;28;20239;-76
2023/04/04 08:43:53;;;;;;;8.30;3.73;;;;;;;1.08;75.76;97280.22;10449804;28;20289;-77
2023/04/04 08:48:55;;;;;;;6.37;3.20;;;;;;;1.85;74.68;97266.41;10444273;28;20200;-78
2023/04/04 08:53:56;;;;;;;4.40;2.73;;;;;;;1.56;73.98;97252.59;10429688;28;20279;-78
2023/04/04 08:58:57;;;;;;;7.43;3.47;;;;;;;1.51;75.07;97264.94;10436757;28;20705;-77
2023/04/04 09:03:59;;;;;;;5.43;2.57;;;;;;;1.74;73.04;97238.63;10407537;28;20732;-79
2023/04/04 09:09:00;;;;;;;4.80;2.20;;;;;;;1.64;71.77;97208.25;10425494;28;20191;-77
2023/04/04 09:14:04;;;;;;;10.07;3.57;;;;;;;1.27;63.31;97051.19;10411403;28;20192;-77
2023/04/04 09:19:04;;;;;;;6.50;2.10;;;;;;;1.80;61.20;97037.75;10407463;28;20639;-77
2023/04/04 09:24:05;;;;;;;4.53;2.40;;;;;;;3.74;58.44;97032.91;10424721;28;20188;-78
2023/04/04 09:29:07;;;;;;;3.07;1.77;;;;;;;4.08;54.28;96966.56;10411318;28;20238;-79
2023/04/04 09:34:07;;;;;;;7.67;2.60;;;;;;;4.98;52.79;96976.44;10448259;28;20207;-78
2023/04/04 09:39:08;;;;;;;5.00;1.77;;;;;;;4.59;53.44;97009.59;10433574;28;21142;-78
2023/04/04 09:44:11;;;;;;;2.10;1.23;;;;;;;5.39;52.17;96994.22;10413929;28;20215;-73
2023/04/04 09:49:20;;;;;;;1.83;1.33;;;;;;;5.04;48.80;96925.00;10427799;28;20735;-74
2023/04/04 09:54:21;;;;;;;2.47;1.47;;;;;;;5.95;48.44;96957.78;10428474;28;20199;-74
2023/04/04 09:59:23;;;;;;;3.60;1.40;;;;;;;6.55;44.92;96881.91;10445583;28;20216;-74
2023/04/04 10:04:25;;;;;;;5.67;2.10;;;;;;;5.45;46.08;96905.41;10447199;28;20191;-74
2023/04/04 10:09:27;;;;;;;2.20;1.40;;;;;;;6.53;45.95;96947.09;10430252;28;20195;-74
2023/04/04 10:14:34;;;;;;;3.40;1.50;;;;;;;6.77;45.53;96931.25;10453624;28;20315;-74
2023/04/04 10:19:36;;;;;;;2.50;1.47;;;;;;;7.22;46.75;96994.44;10452549;28;20228;-74
2023/04/04 10:24:36;;;;;;;3.57;1.80;;;;;;;7.95;45.90;96989.94;10454272;28;20192;-75
2023/04/04 10:29:36;;;;;;;4.87;2.13;;;;;;;9.68;43.22;96977.06;10435776;28;20659;-75
2023/04/04 10:34:46;;;;;;;3.10;1.63;;;;;;;9.67;41.09;96911.81;10450845;28;20311;-76
2023/04/04 10:40:10;;;;;;;2.17;1.60;;;;;;;7.52;43.75;96919.81;10437796;28;20234;-74
2023/04/04 10:45:13;;;;;;;5.93;2.20;;;;;;;6.46;45.49;96943.34;10452223;28;20183;-74
2023/04/04 10:50:14;;;;;;;4.50;1.43;;;;;;;7.52;47.01;97026.69;10448639;28;20586;-76
2023/04/04 10:55:15;;;;;;;1.73;1.57;;;;;;;7.22;43.69;96924.09;10394893;28;20213;-75
2023/04/04 11:00:17;;;;;;;2.53;1.80;;;;;;;6.65;44.09;96927.06;10393623;28;20217;-74
2023/04/04 11:05:31;;;;;;;6.37;1.73;;;;;;;7.29;44.55;96972.94;10412355;28;20204;-77
2023/04/04 11:10:43;;;;;;;3.00;2.23;;;;;;;7.47;43.87;96944.50;10425827;28;20196;-76
2023/04/04 11:15:44;;;;;;;3.23;1.63;;;;;;;9.59;40.53;96928.25;10435096;28;20219;-76
2023/04/04 11:20:46;;;;;;;1.20;1.10;;;;;;;6.54;44.99;96942.72;10433807;28;20184;-76
2023/04/04 11:25:56;;;;;;;6.50;1.57;;;;;;;5.57;47.32;96972.00;10450602;28;20195;-75
2023/04/04 11:31:19;;;;;;;3.97;1.50;;;;;;;7.61;44.96;96977.22;10453505;28;20191;-76
2023/04/04 11:36:23;;;;;;;2.23;1.80;;;;;;;7.64;43.54;96939.59;10452741;28;20223;-75
2023/04/04 11:41:42;;;;;;;2.47;1.40;;;;;;;8.18;42.51;96904.44;10449653;28;20236;-75
2023/04/04 11:46:44;;;;;;;2.63;1.40;;;;;;;6.97;41.29;96837.59;10451780;28;20676;-76
2023/04/04 11:51:44;;;;;;;2.53;1.53;;;;;;;8.46;42.54;96924.66;10449722;28;20334;-76
2023/04/04 11:56:45;;;;;;;2.90;1.20;;;;;;;8.27;41.15;96881.06;10450732;28;20242;-75
2023/04/04 12:01:45;;;;;;;3.23;1.40;;;;;;;9.96;38.60;96861.94;10451447;28;20198;-76
2023/04/04 12:06:49;;;;;;;3.35;1.60;;;;;;;10.91;37.56;96846.47;10451118;28;20522;-76
2023/04/04 12:11:50;;;;;;;3.58;1.20;;;;;;;9.75;38.12;96822.94;10448061;28;20184;-76
2023/04/04 12:16:53;;;;;;;3.25;1.85;;;;;;;9.60;37.82;96820.00;10449810;28;20215;-76
2023/04/04 12:21:56;;;;;;;1.70;1.33;;;;;;;8.73;38.17;96802.00;10449234;28;20196;-76
2023/04/04 12:27:00;;;;;;;4.03;1.40;;;;;;;8.57;38.88;96802.63;10431874;28;20192;-80
2023/04/04 12:32:02;;;;;;;2.78;1.40;;;;;;;9.69;38.92;96857.56;10432286;28;20199;-77
2023/04/04 12:37:03;;;;;;;2.63;1.60;;;;;;;10.84;37.25;96841.03;10428524;28;20644;-77
2023/04/04 12:42:03;;;;;;;1.85;1.65;;;;;;;11.71;37.76;96890.75;10391496;28;20222;-76
2023/04/04 12:47:05;;;;;;;2.55;1.70;;;;;;;8.74;40.31;96853.28;10427781;28;20188;-78
2023/04/04 12:52:07;;;;;;;3.57;1.43;;;;;;;8.91;38.28;96812.53;10441946;28;20271;-77
2023/04/04 12:57:10;;;;;;;4.55;1.40;;;;;;;8.70;40.92;96875.44;10445888;28;20552;-77
2023/04/04 13:08:50;;;;;;;3.10;1.50;;;;;;;9.71;38.20;96842.53;10447753;28;20192;-77
2023/04/04 13:14:01;;;;;;;2.78;1.25;;;;;;;10.16;35.68;96787.50;10447320;28;20192;-78
2023/04/04 13:19:02;;;;;;;3.00;1.58;;;;;;;11.69;35.48;96826.31;10445754;28;20223;-79
2023/04/04 13:24:03;;;;;;;1.58;1.20;;;;;;;11.20;35.11;96753.53;10439248;28;20183;-79
2023/04/04 13:29:03;;;;;;;3.10;1.60;;;;;;;13.06;33.91;96797.66;10446599;28;20212;-76
2023/04/04 13:34:03;;;;;;;1.90;1.40;;;;;;;12.69;33.32;96765.72;10442894;28;20307;-77
2023/04/04 13:39:04;;;;;;;2.45;1.83;;;;;;;10.73;35.62;96782.81;10428219;28;20235;-75
2023/04/04 13:44:04;;;;;;;3.13;1.70;;;;;;;11.87;35.23;96803.38;10449860;28;20208;-75
2023/04/04 13:49:04;;;;;;;4.22;1.70;;;;;;;12.35;34.10;96777.28;10441342;28;20204;-75
2023/04/04 13:54:14;;;;;;;1.55;1.27;;;;;;;13.04;32.36;96750.50;10430195;28;20688;-73
2023/04/04 13:59:15;;;;;;;2.60;1.50;;;;;;;9.88;36.16;96744.91;10448395;28;20270;-74
2023/04/04 14:04:15;;;;;;;3.75;1.33;;;;;;;10.32;36.79;96793.81;10412607;28;20188;-74
2023/04/04 14:09:15;;;;;;;2.58;1.40;;;;;;;11.62;37.17;96846.28;10430107;28;20214;-75
2023/04/04 14:14:16;;;;;;;2.80;1.38;;;;;;;10.50;35.63;96744.06;10432676;28;20708;-75
2023/04/04 14:19:16;;;;;;;2.53;1.65;;;;;;;11.46;35.42;96784.09;10431417;28;20682;-75
2023/04/04 14:24:17;;;;;;;3.63;1.60;;;;;;;8.86;38.16;96770.34;10421977;28;20195;-74
2023/04/04 14:29:17;;;;;;;2.93;1.53;;;;;;;7.21;40.63;96779.13;10453791;28;20192;-74
2023/04/04 14:34:17;;;;;;;4.37;1.80;;;;;;;8.99;38.99;96813.59;10451934;28;20660;-73
2023/04/04 14:39:18;;;;;;;3.90;1.48;;;;;;;10.05;35.59;96737.19;10452129;28;20706;-74
2023/04/04 14:44:20;;;;;;;3.15;1.95;;;;;;;11.45;34.16;96737.84;10452225;28;20652;-74
2023/04/04 14:49:20;;;;;;;2.77;2.13;;;;;;;8.07;38.56;96753.25;10452487;28;20245;-74
2023/04/04 14:54:21;;;;;;;2.87;1.60;;;;;;;6.64;42.14;96810.03;10450793;28;20607;-73
2023/04/04 14:59:21;;;;;;;2.70;1.20;;;;;;;7.19;41.95;96822.75;10452705;28;20722;-73
2023/04/04 15:04:22;;;;;;;3.30;1.37;;;;;;;10.18;37.06;96801.28;10451927;28;20622;-73
2023/04/04 15:09:22;;;;;;;7.07;1.40;;;;;;;11.48;36.27;96809.19;10451810;28;20678;-74
2023/04/04 15:14:23;;;;;;;6.50;1.80;;;;;;;10.54;35.09;96734.91;10452615;28;20711;-73
2023/04/04 15:19:23;;;;;;;2.40;1.85;;;;;;;7.84;38.99;96745.72;10450834;28;20234;-73
2023/04/04 15:24:23;;;;;;;3.90;1.45;;;;;;;9.99;37.50;96801.44;10451940;28;20246;-74
2023/04/04 15:29:24;;;;;;;2.60;1.15;;;;;;;9.95;35.41;96713.72;10450164;28;20188;-75
2023/04/04 15:34:24;;;;;;;1.93;1.43;;;;;;;7.31;40.80;96779.97;10444064;28;20208;-73
2023/04/04 15:39:25;;;;;;;2.53;1.53;;;;;;;7.26;41.87;96814.25;10408705;28;20248;-74
2023/04/04 15:44:25;;;;;;;2.03;1.30;;;;;;;7.44;40.79;96798.81;10409984;28;20671;-73
2023/04/04 15:49:27;;;;;;;2.33;1.23;;;;;;;9.09;39.08;96803.94;10408399;28;20192;-73
2023/04/04 15:54:29;;;;;;;1.90;1.17;;;;;;;10.71;35.38;96735.81;10407445;28;20203;-73
2023/04/04 15:59:30;;;;;;;2.20;1.30;;;;;;;13.88;31.51;96732.25;10423621;28;20304;-74
2023/04/04 16:04:34;;;;;;;1.67;1.10;;;;;;;12.95;31.49;96677.91;10447588;28;20684;-74
2023/04/04 16:09:35;;;;;;;5.70;1.20;;;;;;;10.31;34.55;96688.28;10448099;28;20245;-74
2023/04/04 16:14:35;;;;;;;2.00;1.75;;;;;;;8.20;38.43;96740.69;10450428;28;20252;-73
2023/04/04 16:19:35;;;;;;;2.87;1.70;;;;;;;6.59;42.79;96813.84;10449564;28;20711;-75
2023/04/04 16:24:36;;;;;;;3.40;1.90;;;;;;;5.69;44.28;96835.06;10434019;28;20606;-75
2023/04/04 16:29:36;;;;;;;6.27;1.70;;;;;;;6.35;44.00;96845.34;10411815;28;20564;-75
2023/04/04 16:34:37;;;;;;;2.50;1.47;;;;;;;9.05;39.30;96813.88;10409418;28;20192;-75
2023/04/04 16:39:37;;;;;;;3.10;1.40;;;;;;;8.34;38.79;96762.09;10408995;28;20324;-75
2023/04/04 16:44:38;;;;;;;3.00;1.60;;;;;;;5.70;43.28;96788.16;10409628;28;20248;-74
2023/04/04 16:49:39;;;;;;;1.70;1.40;;;;;;;4.59;46.44;96850.50;10407165;28;20561;-74
2023/04/04 16:54:41;;;;;;;4.47;1.77;;;;;;;4.35;45.82;96824.63;10407974;28;20577;-74
2023/04/04 16:59:42;;;;;;;4.70;1.90;;;;;;;4.58;47.24;96880.81;10407262;28;20307;-74
2023/04/04 17:04:43;;;;;;;2.20;1.60;;;;;;;3.79;48.74;96893.50;10407896;28;20214;-74
2023/04/04 17:09:43;;;;;;;2.73;1.70;;;;;;;3.61;49.38;96894.81;10407567;28;20192;-74
2023/04/04 17:14:44;;;;;;;4.63;2.40;;;;;;;3.27;52.05;96951.53;10407129;28;20562;-74
2023/04/04 17:19:44;;;;;;;5.00;3.67;;;;;;;3.20;50.39;96913.13;10406523;28;20692;-74
2023/04/04 17:24:45;;;;;;;1.90;1.67;;;;;;;2.85;50.50;96902.59;10407324;28;20192;-75
2023/04/04 17:29:45;;;;;;;2.97;1.73;;;;;;;2.63;51.21;96919.56;10405991;28;20192;-75
2023/04/04 17:34:45;;;;;;;2.97;1.23;;;;;;;2.43;53.09;96945.88;10407234;28;20680;-75
2023/04/04 17:39:46;;;;;;;3.33;1.60;;;;;;;2.19;54.14;96974.16;10388331;28;20716;-75
2023/04/04 17:44:46;;;;;;;6.77;2.20;;;;;;;2.04;54.88;96983.72;10388531;28;20188;-75
2023/04/04 17:49:46;;;;;;;4.40;2.17;;;;;;;1.71;55.29;96987.47;10406177;28;20723;-75
2023/04/04 17:54:47;;;;;;;4.67;2.60;;;;;;;1.25;56.60;97006.56;10406751;28;20196;-74
2023/04/04 17:59:47;;;;;;;2.63;1.50;;;;;;;1.16;57.25;97022.59;10405819;28;20315;-74
2023/04/04 18:04:50;;;;;;;3.23;1.60;;;;;;;0.59;61.05;97092.91;10406842;28;20193;-75
2023/04/04 18:09:51;;;;;;;2.17;1.87;;;;;;;0.25;63.27;97129.09;10405755;28;20243;-74
2023/04/04 18:14:51;;;;;;;3.07;1.90;;;;;;;0.26;65.06;97146.22;10405937;28;20193;-75
2023/04/04 18:19:53;;;;;;;4.60;2.60;;;;;;;-0.60;66.46;97132.63;10405247;28;20224;-74
2023/04/04 18:24:53;;;;;;;5.70;3.30;;;;;;;-0.87;69.09;97170.81;10388460;28;20654;-74
2023/04/04 18:29:54;;;;;;;6.77;4.03;;;;;;;-0.73;69.42;97169.25;10409505;28;20193;-74
2023/04/04 18:34:54;;;;;;;3.70;2.00;;;;;;;-0.88;69.49;97146.84;10397032;28;20195;-74
2023/04/04 18:39:55;;;;;;;11.77;6.80;;;;;;;-1.34;72.54;97187.59;10412910;28;20323;-74
2023/04/04 18:44:55;;;;;;;7.63;3.60;;;;;;;-1.40;73.00;97180.19;10414087;28;20652;-74
2023/04/04 18:49:56;;;;;;;6.97;2.70;;;;;;;-1.53;74.77;97190.16;10395907;28;20615;-74
2023/04/04 18:54:56;;;;;;;6.83;2.17;;;;;;;-1.62;74.88;97181.16;10413377;28;20196;-74
2023/04/04 18:59:56;;;;;;;5.50;3.53;;;;;;;-1.72;75.74;97180.72;10413232;28;20269;-74
2023/04/04 19:04:57;;;;;;;3.77;2.70;;;;;;;-1.81;75.57;97182.00;10395553;28;20203;-74
2023/04/04 19:09:58;;;;;;;5.97;2.70;;;;;;;-1.85;75.82;97172.75;10394827;28;20197;-73
2023/04/04 19:15:00;;;;;;;10.40;2.57;;;;;;;-1.91;76.66;97191.00;10395001;28;20204;-75
2023/04/04 19:20:00;;;;;;;4.97;2.17;;;;;;;-2.06;78.12;97196.81;10412659;28;20235;-74
2023/04/04 19:25:00;;;;;;;5.43;2.70;;;;;;;-2.19;80.43;97210.16;10412454;28;20675;-74
2023/04/04 19:30:10;;;;;;;3.33;2.07;;;;;;;-2.28;80.41;97202.88;10411978;28;20190;-74
2023/04/04 19:35:20;;;;;;;7.53;3.00;;;;;;;-2.61;81.04;97203.34;10412643;28;20246;-74
2023/04/04 19:40:45;;;;;;;5.20;3.13;;;;;;;-2.44;82.04;97212.91;10409715;28;20260;-74
2023/04/04 19:45:50;;;;;;;9.73;3.90;;;;;;;-2.30;82.18;97188.41;10394263;28;20211;-74
2023/04/04 19:50:50;;;;;;;5.90;3.20;;;;;;;-2.30;81.48;97185.84;10377439;28;20640;-74
2023/04/04 19:55:51;;;;;;;8.17;3.40;;;;;;;-2.31;83.71;97205.56;10393052;28;20288;-75
2023/04/04 20:00:51;;;;;;;7.97;3.80;;;;;;;-2.22;83.39;97197.47;10411004;28;20221;-74
2023/04/04 20:05:53;;;;;;;10.03;4.40;;;;;;;-2.22;82.55;97181.22;10410762;28;20196;-74
2023/04/04 20:10:54;;;;;;;7.60;3.83;;;;;;;-2.18;82.34;97180.19;10410230;28;20192;-75
2023/04/04 20:16:00;;;;;;;7.13;3.43;;;;;;;-2.20;82.45;97176.88;10411089;28;20196;-75
2023/04/04 20:21:05;;;;;;;6.17;3.07;;;;;;;-2.23;83.26;97190.66;10409588;28;20239;-74
2023/04/04 20:26:07;;;;;;;7.43;3.70;;;;;;;-2.15;82.75;97182.63;10410266;28;20246;-75
2023/04/04 20:31:08;;;;;;;8.30;3.90;;;;;;;-2.25;83.49;97176.22;10409800;28;20189;-74
2023/04/04 20:36:30;;;;;;;5.80;2.90;;;;;;;-2.26;82.94;97175.41;10409539;28;20219;-74
2023/04/04 20:41:30;;;;;;;4.33;2.80;;;;;;;-2.24;82.12;97171.03;10391277;28;20212;-74
2023/04/04 20:46:35;;;;;;;6.63;2.87;;;;;;;-2.16;82.46;97163.84;10409751;28;20591;-74
2023/04/04 20:51:36;;;;;;;4.20;2.60;;;;;;;-2.13;82.52;97167.16;10408352;28;20234;-74
2023/04/04 20:56:40;;;;;;;6.17;3.07;;;;;;;-2.19;81.32;97158.00;10408606;28;20274;-74
2023/04/04 21:01:40;;;;;;;6.27;3.83;;;;;;;-2.11;81.67;97171.34;10441175;28;20349;-74
2023/04/04 21:06:40;;;;;;;5.53;2.77;;;;;;;-2.02;81.66;97154.69;10448278;28;20191;-74
2023/04/04 21:11:42;;;;;;;8.77;2.50;;;;;;;-2.10;81.66;97177.28;10430956;28;20249;-74
2023/04/04 21:16:42;;;;;;;6.03;2.70;;;;;;;-2.13;82.91;97182.56;10435717;28;20303;-74
2023/04/04 21:21:43;;;;;;;5.30;2.97;;;;;;;-2.17;82.30;97180.13;10416422;28;20673;-74
2023/04/04 21:26:43;;;;;;;5.87;2.87;;;;;;;-2.19;82.82;97168.25;10448734;28;20200;-74
2023/04/04 21:31:45;;;;;;;3.13;2.37;;;;;;;-2.19;82.11;97160.56;10448922;28;20249;-74
2023/04/04 21:36:47;;;;;;;3.83;2.47;;;;;;;-2.21;82.91;97160.63;10416471;28;20692;-74
2023/04/04 21:41:50;;;;;;;5.83;2.07;;;;;;;-2.32;84.23;97180.78;10407877;28;20219;-75
2023/04/04 21:46:53;;;;;;;3.33;2.30;;;;;;;-2.34;84.43;97178.28;10408072;28;20219;-74
2023/04/04 21:51:54;;;;;;;7.40;2.70;;;;;;;-2.28;85.08;97184.91;10407565;28;20266;-74
2023/04/04 21:56:54;;;;;;;5.67;2.53;;;;;;;-2.47;85.91;97179.69;10407528;28;20217;-74
2023/04/04 22:01:55;;;;;;;3.90;3.37;;;;;;;-2.32;85.46;97173.09;10407287;28;20197;-74
2023/04/04 22:06:57;;;;;;;3.93;2.47;;;;;;;-2.35;86.25;97176.59;10414052;28;20195;-74
2023/04/04 22:11:57;;;;;;;7.33;2.70;;;;;;;-2.36;86.46;97174.09;10415550;28;20196;-74
2023/04/04 22:16:58;;;;;;;4.30;2.60;;;;;;;-2.37;86.11;97177.59;10415035;28;20590;-74
2023/04/04 22:21:58;;;;;;;5.10;2.50;;;;;;;-2.39;86.38;97171.69;10414577;28;20283;-74
2023/04/04 22:27:02;;;;;;;4.57;2.07;;;;;;;-2.28;85.48;97151.53;10414994;28;20192;-74
2023/04/04 22:32:03;;;;;;;8.73;2.53;;;;;;;-2.25;85.93;97153.13;10413964;28;20188;-74
2023/04/04 22:37:04;;;;;;;4.47;2.60;;;;;;;-2.25;86.27;97151.41;10414302;28;20251;-74
2023/04/04 22:42:04;;;;;;;4.57;2.50;;;;;;;-2.22;85.84;97147.84;10396180;28;20220;-74
2023/04/04 22:47:05;;;;;;;5.13;2.47;;;;;;;-2.25;86.02;97143.72;10413565;28;20560;-74
2023/04/04 22:52:11;;;;;;;4.07;2.37;;;;;;;-2.20;85.35;97152.03;10413884;28;20193;-74
2023/04/04 22:57:12;;;;;;;6.17;2.50;;;;;;;-2.19;85.85;97150.28;10413208;28;20688;-74
2023/04/04 23:02:13;;;;;;;9.17;3.27;;;;;;;-2.22;86.55;97156.41;10395700;28;20204;-74
2023/04/04 23:07:13;;;;;;;6.77;3.30;;;;;;;-2.23;86.99;97148.78;10413261;28;20294;-74
2023/04/04 23:12:14;;;;;;;7.50;3.23;;;;;;;-2.27;86.96;97154.94;10412663;28;20223;-75
2023/04/04 23:17:14;;;;;;;7.13;3.30;;;;;;;-2.10;86.64;97143.94;10411784;28;20232;-74
2023/04/04 23:22:15;;;;;;;6.03;2.67;;;;;;;-2.13;85.86;97131.22;10412172;28;20197;-74
2023/04/04 23:27:15;;;;;;;6.03;2.43;;;;;;;-2.01;84.61;97120.41;10413113;28;20246;-74
2023/04/04 23:32:15;;;;;;;7.83;2.70;;;;;;;-1.96;84.99;97115.94;10411444;28;20200;-74